sensor_id;sensor_type;location;lat;lon;timestamp;temperature;humidity
38456;DHT22;24237;50.106;20.014;2024-01-15T00:02:00;4.70;99.90
38456;DHT22;24237;50.106;20.014;2024-01-15T00:04:26;4.80;99.90
38456;DHT22;24237;50.106;20.014;2024-01-15T00:06:51;4.70;99.90
38456;DHT22;24237;50.106;20.014;2024-01-15T00:09:17;4.70;99.90
38456;DHT22;24237;50.106;20.014;2024-01-15T00:11:43;4.80;99.90
38456;DHT22;24237;50.106;20.014;2024-01-15T00:14:09;4.90;99.90
38456;DHT22;24237;50.106;20.014;2024-01-15T00:16:34;5.00;99.90
38456;DHT22;24237;50.106;20.014;2024-01-15T00:19:00;5.00;99.90
38456;DHT22;24237;50.106;20.014;2024-01-15T00:21:25;5.00;1.00
38456;DHT22;24237;50.106;20.014;2024-01-15T00:23:52;4.60;99.90
38456;DHT22;24237;50.106;20.014;2024-01-15T00:26:18;4.50;99.90
38456;DHT22;24237;50.106;20.014;2024-01-15T00:28:43;4.70;99.90
38456;DHT22;24237;50.106;20.014;2024-01-15T00:31:09;4.60;99.90
38456;DHT22;24237;50.106;20.014;2024-01-15T00:33:34;4.50;99.90
38456;DHT22;24237;50.106;20.014;2024-01-15T00:36:00;4.70;99.90
38456;DHT22;24237;50.106;20.014;2024-01-15T00:38:26;4.70;99.90
38456;DHT22;24237;50.106;20.014;2024-01-15T00:40:52;4.80;99.90
38456;DHT22;24237;50.106;20.014;2024-01-15T00:43:17;4.80;99.90
38456;DHT22;24237;50.106;20.014;2024-01-15T00:45:44;4.90;99.90
38456;DHT22;24237;50.106;20.014;2024-01-15T00:48:10;5.00;99.90
38456;DHT22;24237;50.106;20.014;2024-01-15T00:50:36;5.00;99.90
38456;DHT22;24237;50.106;20.014;2024-01-15T00:53:01;5.00;1.00
38456;DHT22;24237;50.106;20.014;2024-01-15T00:55:28;4.90;1.00
38456;DHT22;24237;50.106;20.014;2024-01-15T00:57:54;4.80;1.00
38456;DHT22;24237;50.106;20.014;2024-01-15T01:00:20;4.70;1.00
38456;DHT22;24237;50.106;20.014;2024-01-15T01:02:46;4.90;1.00
38456;DHT22;24237;50.106;20.014;2024-01-15T01:05:11;4.90;1.00
38456;DHT22;24237;50.106;20.014;2024-01-15T01:07:37;5.00;1.00
38456;DHT22;24237;50.106;20.014;2024-01-15T01:10:03;5.00;1.00
38456;DHT22;24237;50.106;20.014;2024-01-15T01:12:28;4.90;1.00
38456;DHT22;24237;50.106;20.014;2024-01-15T01:14:55;4.90;1.00
38456;DHT22;24237;50.106;20.014;2024-01-15T01:17:20;5.00;1.00
38456;DHT22;24237;50.106;20.014;2024-01-15T01:19:46;5.00;99.90
38456;DHT22;24237;50.106;20.014;2024-01-15T01:22:12;4.90;99.90
38456;DHT22;24237;50.106;20.014;2024-01-15T01:24:37;4.90;99.90
38456;DHT22;24237;50.106;20.014;2024-01-15T01:27:03;5.00;99.90
38456;DHT22;24237;50.106;20.014;2024-01-15T01:29:29;4.90;99.90
38456;DHT22;24237;50.106;20.014;2024-01-15T01:31:54;5.00;99.90
38456;DHT22;24237;50.106;20.014;2024-01-15T01:34:21;5.10;99.90
38456;DHT22;24237;50.106;20.014;2024-01-15T01:36:47;5.00;99.90
38456;DHT22;24237;50.106;20.014;2024-01-15T01:39:13;4.80;99.90
38456;DHT22;24237;50.106;20.014;2024-01-15T01:41:39;4.70;99.90
38456;DHT22;24237;50.106;20.014;2024-01-15T01:44:06;4.60;99.90
38456;DHT22;24237;50.106;20.014;2024-01-15T01:46:32;4.60;99.90
38456;DHT22;24237;50.106;20.014;2024-01-15T01:48:59;5.00;99.90
38456;DHT22;24237;50.106;20.014;2024-01-15T01:51:30;4.80;99.90
38456;DHT22;24237;50.106;20.014;2024-01-15T01:53:56;5.00;99.90
38456;DHT22;24237;50.106;20.014;2024-01-15T01:56:22;5.30;99.90
38456;DHT22;24237;50.106;20.014;2024-01-15T01:58:48;5.10;99.90
38456;DHT22;24237;50.106;20.014;2024-01-15T02:01:15;5.00;99.90
38456;DHT22;24237;50.106;20.014;2024-01-15T02:03:41;5.00;99.90
38456;DHT22;24237;50.106;20.014;2024-01-15T02:06:07;4.90;99.90
38456;DHT22;24237;50.106;20.014;2024-01-15T02:08:34;5.00;99.90
38456;DHT22;24237;50.106;20.014;2024-01-15T02:11:00;4.90;99.90
38456;DHT22;24237;50.106;20.014;2024-01-15T02:13:25;5.00;99.90
38456;DHT22;24237;50.106;20.014;2024-01-15T02:15:51;5.00;99.90
38456;DHT22;24237;50.106;20.014;2024-01-15T02:18:17;5.00;99.90
38456;DHT22;24237;50.106;20.014;2024-01-15T02:20:42;5.00;99.90
38456;DHT22;24237;50.106;20.014;2024-01-15T02:23:14;4.90;99.90
38456;DHT22;24237;50.106;20.014;2024-01-15T02:25:44;4.80;99.90
38456;DHT22;24237;50.106;20.014;2024-01-15T02:28:11;4.70;99.90
38456;DHT22;24237;50.106;20.014;2024-01-15T02:30:38;4.60;99.90
38456;DHT22;24237;50.106;20.014;2024-01-15T02:33:05;4.70;99.90
38456;DHT22;24237;50.106;20.014;2024-01-15T02:35:30;4.60;99.90
38456;DHT22;24237;50.106;20.014;2024-01-15T02:37:56;4.70;99.90
38456;DHT22;24237;50.106;20.014;2024-01-15T02:40:22;4.70;99.90
38456;DHT22;24237;50.106;20.014;2024-01-15T02:42:48;4.60;99.90
38456;DHT22;24237;50.106;20.014;2024-01-15T02:45:13;4.70;99.90
38456;DHT22;24237;50.106;20.014;2024-01-15T02:47:39;4.60;99.90
38456;DHT22;24237;50.106;20.014;2024-01-15T02:50:05;4.50;99.90
38456;DHT22;24237;50.106;20.014;2024-01-15T02:52:31;4.40;99.90
38456;DHT22;24237;50.106;20.014;2024-01-15T02:54:56;4.50;99.90
38456;DHT22;24237;50.106;20.014;2024-01-15T02:57:22;4.50;99.90
38456;DHT22;24237;50.106;20.014;2024-01-15T02:59:49;4.40;99.90
38456;DHT22;24237;50.106;20.014;2024-01-15T03:02:14;4.60;99.90
38456;DHT22;24237;50.106;20.014;2024-01-15T03:04:44;4.50;99.90
38456;DHT22;24237;50.106;20.014;2024-01-15T03:07:10;4.60;99.90
38456;DHT22;24237;50.106;20.014;2024-01-15T03:09:35;4.50;99.90
38456;DHT22;24237;50.106;20.014;2024-01-15T03:12:01;4.60;99.90
38456;DHT22;24237;50.106;20.014;2024-01-15T03:14:26;4.60;99.90
38456;DHT22;24237;50.106;20.014;2024-01-15T03:16:53;4.60;99.90
38456;DHT22;24237;50.106;20.014;2024-01-15T03:19:18;4.90;99.90
38456;DHT22;24237;50.106;20.014;2024-01-15T03:21:44;4.70;99.90
38456;DHT22;24237;50.106;20.014;2024-01-15T03:24:09;4.80;99.90
38456;DHT22;24237;50.106;20.014;2024-01-15T03:26:35;4.90;99.90
38456;DHT22;24237;50.106;20.014;2024-01-15T03:29:00;5.00;99.90
38456;DHT22;24237;50.106;20.014;2024-01-15T03:31:26;5.00;99.90
38456;DHT22;24237;50.106;20.014;2024-01-15T03:33:52;4.70;99.90
38456;DHT22;24237;50.106;20.014;2024-01-15T03:36:17;4.70;99.90
38456;DHT22;24237;50.106;20.014;2024-01-15T03:38:43;4.60;99.90
38456;DHT22;24237;50.106;20.014;2024-01-15T03:41:08;4.40;99.90
38456;DHT22;24237;50.106;20.014;2024-01-15T03:43:34;4.40;99.90
38456;DHT22;24237;50.106;20.014;2024-01-15T03:46:00;4.40;99.90
38456;DHT22;24237;50.106;20.014;2024-01-15T03:48:25;4.40;99.90
38456;DHT22;24237;50.106;20.014;2024-01-15T03:50:51;4.40;99.90
38456;DHT22;24237;50.106;20.014;2024-01-15T03:53:16;4.30;99.90
38456;DHT22;24237;50.106;20.014;2024-01-15T03:55:42;4.40;99.90
38456;DHT22;24237;50.106;20.014;2024-01-15T03:58:08;4.40;99.90
38456;DHT22;24237;50.106;20.014;2024-01-15T04:00:34;4.30;99.90
38456;DHT22;24237;50.106;20.014;2024-01-15T04:02:59;4.40;99.90
38456;DHT22;24237;50.106;20.014;2024-01-15T04:05:25;4.60;99.90
38456;DHT22;24237;50.106;20.014;2024-01-15T04:07:51;4.50;99.90
38456;DHT22;24237;50.106;20.014;2024-01-15T04:10:17;4.40;99.90
38456;DHT22;24237;50.106;20.014;2024-01-15T04:12:42;4.50;99.90
38456;DHT22;24237;50.106;20.014;2024-01-15T04:15:08;4.60;99.90
38456;DHT22;24237;50.106;20.014;2024-01-15T04:17:34;4.50;99.90
38456;DHT22;24237;50.106;20.014;2024-01-15T04:20:00;4.60;99.90
38456;DHT22;24237;50.106;20.014;2024-01-15T04:22:26;4.50;99.90
38456;DHT22;24237;50.106;20.014;2024-01-15T04:24:52;4.50;99.90
38456;DHT22;24237;50.106;20.014;2024-01-15T04:27:18;4.60;99.90
38456;DHT22;24237;50.106;20.014;2024-01-15T04:29:43;4.50;99.90
38456;DHT22;24237;50.106;20.014;2024-01-15T04:32:10;4.40;99.90
38456;DHT22;24237;50.106;20.014;2024-01-15T04:34:35;4.40;99.90
38456;DHT22;24237;50.106;20.014;2024-01-15T04:37:01;4.40;99.90
38456;DHT22;24237;50.106;20.014;2024-01-15T04:39:27;4.50;99.90
38456;DHT22;24237;50.106;20.014;2024-01-15T04:41:53;4.40;99.90
38456;DHT22;24237;50.106;20.014;2024-01-15T04:44:18;4.30;99.90
38456;DHT22;24237;50.106;20.014;2024-01-15T04:46:44;4.40;99.90
38456;DHT22;24237;50.106;20.014;2024-01-15T04:49:11;4.50;99.90
38456;DHT22;24237;50.106;20.014;2024-01-15T04:51:37;4.40;99.90
38456;DHT22;24237;50.106;20.014;2024-01-15T04:54:03;4.20;99.90
38456;DHT22;24237;50.106;20.014;2024-01-15T04:56:29;4.10;99.90
38456;DHT22;24237;50.106;20.014;2024-01-15T04:58:54;4.20;99.90
38456;DHT22;24237;50.106;20.014;2024-01-15T05:01:20;4.10;99.80
38456;DHT22;24237;50.106;20.014;2024-01-15T05:03:46;4.20;96.20
38456;DHT22;24237;50.106;20.014;2024-01-15T05:06:12;4.30;98.50
38456;DHT22;24237;50.106;20.014;2024-01-15T05:08:37;4.40;96.10
38456;DHT22;24237;50.106;20.014;2024-01-15T05:11:03;4.40;85.50
38456;DHT22;24237;50.106;20.014;2024-01-15T05:13:29;4.30;96.90
38456;DHT22;24237;50.106;20.014;2024-01-15T05:15:55;4.60;90.10
38456;DHT22;24237;50.106;20.014;2024-01-15T05:18:20;4.70;84.30
38456;DHT22;24237;50.106;20.014;2024-01-15T05:20:46;4.60;92.50
38456;DHT22;24237;50.106;20.014;2024-01-15T05:23:12;4.70;99.90
38456;DHT22;24237;50.106;20.014;2024-01-15T05:25:37;4.90;90.20
38456;DHT22;24237;50.106;20.014;2024-01-15T05:28:05;4.80;78.00
38456;DHT22;24237;50.106;20.014;2024-01-15T05:30:30;4.60;82.10
38456;DHT22;24237;50.106;20.014;2024-01-15T05:32:56;4.70;76.00
38456;DHT22;24237;50.106;20.014;2024-01-15T05:35:23;4.60;97.60
38456;DHT22;24237;50.106;20.014;2024-01-15T05:37:48;4.60;70.90
38456;DHT22;24237;50.106;20.014;2024-01-15T05:40:14;4.50;91.20
38456;DHT22;24237;50.106;20.014;2024-01-15T05:42:41;4.70;99.90
38456;DHT22;24237;50.106;20.014;2024-01-15T05:45:07;4.50;99.90
38456;DHT22;24237;50.106;20.014;2024-01-15T05:47:33;4.40;99.90
38456;DHT22;24237;50.106;20.014;2024-01-15T05:50:00;4.30;99.90
38456;DHT22;24237;50.106;20.014;2024-01-15T05:52:25;4.40;99.90
38456;DHT22;24237;50.106;20.014;2024-01-15T05:54:51;4.40;99.90
38456;DHT22;24237;50.106;20.014;2024-01-15T05:57:17;4.30;99.90
38456;DHT22;24237;50.106;20.014;2024-01-15T05:59:44;4.20;99.90
38456;DHT22;24237;50.106;20.014;2024-01-15T06:02:10;4.30;99.90
38456;DHT22;24237;50.106;20.014;2024-01-15T06:04:36;4.40;99.90
38456;DHT22;24237;50.106;20.014;2024-01-15T06:07:02;4.40;99.90
38456;DHT22;24237;50.106;20.014;2024-01-15T06:09:28;4.40;99.90
38456;DHT22;24237;50.106;20.014;2024-01-15T06:11:54;4.40;99.90
38456;DHT22;24237;50.106;20.014;2024-01-15T06:14:20;4.50;99.90
38456;DHT22;24237;50.106;20.014;2024-01-15T06:16:46;4.40;99.90
38456;DHT22;24237;50.106;20.014;2024-01-15T06:19:11;4.40;99.90
38456;DHT22;24237;50.106;20.014;2024-01-15T06:21:37;4.40;99.90
38456;DHT22;24237;50.106;20.014;2024-01-15T06:24:03;4.30;99.90
38456;DHT22;24237;50.106;20.014;2024-01-15T06:26:28;4.10;99.90
38456;DHT22;24237;50.106;20.014;2024-01-15T06:28:54;4.10;99.90
38456;DHT22;24237;50.106;20.014;2024-01-15T06:31:20;4.20;99.90
38456;DHT22;24237;50.106;20.014;2024-01-15T06:33:45;4.30;99.90
38456;DHT22;24237;50.106;20.014;2024-01-15T06:36:13;4.40;99.90
38456;DHT22;24237;50.106;20.014;2024-01-15T06:38:39;4.30;99.90
38456;DHT22;24237;50.106;20.014;2024-01-15T06:41:05;4.50;99.90
38456;DHT22;24237;50.106;20.014;2024-01-15T06:43:31;4.50;99.90
38456;DHT22;24237;50.106;20.014;2024-01-15T06:45:56;4.20;99.90
38456;DHT22;24237;50.106;20.014;2024-01-15T06:48:22;4.30;99.90
38456;DHT22;24237;50.106;20.014;2024-01-15T06:50:48;4.40;99.90
38456;DHT22;24237;50.106;20.014;2024-01-15T06:53:13;4.40;99.90
38456;DHT22;24237;50.106;20.014;2024-01-15T06:55:39;4.50;99.90
38456;DHT22;24237;50.106;20.014;2024-01-15T06:58:05;4.40;99.90
38456;DHT22;24237;50.106;20.014;2024-01-15T07:00:31;4.30;99.90
38456;DHT22;24237;50.106;20.014;2024-01-15T07:02:56;4.40;99.90
38456;DHT22;24237;50.106;20.014;2024-01-15T07:05:23;4.40;99.90
38456;DHT22;24237;50.106;20.014;2024-01-15T07:07:49;4.40;99.90
38456;DHT22;24237;50.106;20.014;2024-01-15T07:10:14;4.50;99.90
38456;DHT22;24237;50.106;20.014;2024-01-15T07:12:43;4.40;99.90
38456;DHT22;24237;50.106;20.014;2024-01-15T07:15:09;4.30;99.90
38456;DHT22;24237;50.106;20.014;2024-01-15T07:17:36;4.50;99.90
38456;DHT22;24237;50.106;20.014;2024-01-15T07:20:11;4.60;99.90
38456;DHT22;24237;50.106;20.014;2024-01-15T07:22:37;4.30;99.90
38456;DHT22;24237;50.106;20.014;2024-01-15T07:25:03;4.20;99.90
38456;DHT22;24237;50.106;20.014;2024-01-15T07:27:30;4.40;99.90
38456;DHT22;24237;50.106;20.014;2024-01-15T07:29:57;4.30;99.90
38456;DHT22;24237;50.106;20.014;2024-01-15T07:32:22;4.20;99.90
38456;DHT22;24237;50.106;20.014;2024-01-15T07:34:48;4.30;99.90
38456;DHT22;24237;50.106;20.014;2024-01-15T07:37:14;4.40;99.90
38456;DHT22;24237;50.106;20.014;2024-01-15T07:39:40;4.40;99.90
38456;DHT22;24237;50.106;20.014;2024-01-15T07:42:06;4.40;99.90
38456;DHT22;24237;50.106;20.014;2024-01-15T07:44:33;4.40;99.90
38456;DHT22;24237;50.106;20.014;2024-01-15T07:46:58;4.30;99.90
38456;DHT22;24237;50.106;20.014;2024-01-15T07:49:24;4.30;99.90
38456;DHT22;24237;50.106;20.014;2024-01-15T07:51:50;4.30;99.90
38456;DHT22;24237;50.106;20.014;2024-01-15T07:54:16;4.20;99.90
38456;DHT22;24237;50.106;20.014;2024-01-15T07:57:02;4.30;99.90
38456;DHT22;24237;50.106;20.014;2024-01-15T07:59:31;4.30;99.90
38456;DHT22;24237;50.106;20.014;2024-01-15T08:01:58;4.30;99.90
38456;DHT22;24237;50.106;20.014;2024-01-15T08:04:24;4.30;99.90
38456;DHT22;24237;50.106;20.014;2024-01-15T08:06:50;4.30;99.90
38456;DHT22;24237;50.106;20.014;2024-01-15T08:09:16;4.30;99.90
38456;DHT22;24237;50.106;20.014;2024-01-15T08:11:43;4.30;99.90
38456;DHT22;24237;50.106;20.014;2024-01-15T08:14:09;4.40;99.90
38456;DHT22;24237;50.106;20.014;2024-01-15T08:16:36;4.30;99.90
38456;DHT22;24237;50.106;20.014;2024-01-15T08:19:02;4.40;99.90
38456;DHT22;24237;50.106;20.014;2024-01-15T08:21:27;4.30;99.90
38456;DHT22;24237;50.106;20.014;2024-01-15T08:23:58;4.60;99.90
38456;DHT22;24237;50.106;20.014;2024-01-15T08:26:24;4.70;99.90
38456;DHT22;24237;50.106;20.014;2024-01-15T08:28:50;4.50;99.90
38456;DHT22;24237;50.106;20.014;2024-01-15T08:31:15;4.50;99.90
38456;DHT22;24237;50.106;20.014;2024-01-15T08:33:41;4.50;99.90
38456;DHT22;24237;50.106;20.014;2024-01-15T08:36:07;4.50;99.90
38456;DHT22;24237;50.106;20.014;2024-01-15T08:38:32;4.50;99.90
38456;DHT22;24237;50.106;20.014;2024-01-15T08:40:58;4.50;99.90
38456;DHT22;24237;50.106;20.014;2024-01-15T08:43:26;4.70;99.90
38456;DHT22;24237;50.106;20.014;2024-01-15T08:45:52;4.40;99.90
38456;DHT22;24237;50.106;20.014;2024-01-15T08:48:18;4.30;99.90
38456;DHT22;24237;50.106;20.014;2024-01-15T08:50:44;4.30;99.90
38456;DHT22;24237;50.106;20.014;2024-01-15T08:53:13;4.50;99.90
38456;DHT22;24237;50.106;20.014;2024-01-15T08:55:38;4.60;99.90
38456;DHT22;24237;50.106;20.014;2024-01-15T08:58:04;4.40;99.90
38456;DHT22;24237;50.106;20.014;2024-01-15T09:00:31;4.20;99.90
38456;DHT22;24237;50.106;20.014;2024-01-15T09:02:57;4.10;99.90
38456;DHT22;24237;50.106;20.014;2024-01-15T09:05:22;3.90;99.90
38456;DHT22;24237;50.106;20.014;2024-01-15T09:07:48;3.90;99.90
38456;DHT22;24237;50.106;20.014;2024-01-15T09:10:16;3.70;99.90
38456;DHT22;24237;50.106;20.014;2024-01-15T09:12:42;3.70;99.90
38456;DHT22;24237;50.106;20.014;2024-01-15T09:15:08;3.80;99.90
38456;DHT22;24237;50.106;20.014;2024-01-15T09:17:34;3.70;99.90
38456;DHT22;24237;50.106;20.014;2024-01-15T09:19:59;3.70;99.90
38456;DHT22;24237;50.106;20.014;2024-01-15T09:22:25;3.70;99.90
38456;DHT22;24237;50.106;20.014;2024-01-15T09:24:52;3.70;99.90
38456;DHT22;24237;50.106;20.014;2024-01-15T09:27:17;3.50;99.90
38456;DHT22;24237;50.106;20.014;2024-01-15T09:29:43;3.60;99.90
38456;DHT22;24237;50.106;20.014;2024-01-15T09:32:11;3.70;99.90
38456;DHT22;24237;50.106;20.014;2024-01-15T09:34:37;3.60;99.90
38456;DHT22;24237;50.106;20.014;2024-01-15T09:37:03;3.80;99.90
38456;DHT22;24237;50.106;20.014;2024-01-15T09:39:29;3.50;99.90
38456;DHT22;24237;50.106;20.014;2024-01-15T09:41:56;3.40;99.90
38456;DHT22;24237;50.106;20.014;2024-01-15T09:44:23;3.50;99.90
38456;DHT22;24237;50.106;20.014;2024-01-15T09:46:49;3.50;99.90
38456;DHT22;24237;50.106;20.014;2024-01-15T09:49:18;3.40;99.90
38456;DHT22;24237;50.106;20.014;2024-01-15T09:51:44;3.10;1.00
38456;DHT22;24237;50.106;20.014;2024-01-15T09:54:10;3.00;99.90
38456;DHT22;24237;50.106;20.014;2024-01-15T09:56:39;3.30;56.70
38456;DHT22;24237;50.106;20.014;2024-01-15T09:59:05;3.60;99.90
38456;DHT22;24237;50.106;20.014;2024-01-15T10:01:32;3.60;99.90
38456;DHT22;24237;50.106;20.014;2024-01-15T10:03:58;3.60;17.10
38456;DHT22;24237;50.106;20.014;2024-01-15T10:06:26;3.40;6.10
38456;DHT22;24237;50.106;20.014;2024-01-15T10:08:57;3.70;1.00
38456;DHT22;24237;50.106;20.014;2024-01-15T10:11:23;3.50;99.90
38456;DHT22;24237;50.106;20.014;2024-01-15T10:13:49;3.50;1.00
38456;DHT22;24237;50.106;20.014;2024-01-15T10:16:21;3.20;1.00
38456;DHT22;24237;50.106;20.014;2024-01-15T10:18:48;3.30;99.90
38456;DHT22;24237;50.106;20.014;2024-01-15T10:21:13;3.10;1.00
38456;DHT22;24237;50.106;20.014;2024-01-15T10:23:39;3.30;99.90
38456;DHT22;24237;50.106;20.014;2024-01-15T10:26:05;3.40;99.90
38456;DHT22;24237;50.106;20.014;2024-01-15T10:28:31;3.70;99.90
38456;DHT22;24237;50.106;20.014;2024-01-15T10:30:58;3.60;99.90
38456;DHT22;24237;50.106;20.014;2024-01-15T10:33:25;3.70;99.90
38456;DHT22;24237;50.106;20.014;2024-01-15T10:35:54;3.60;1.00
38456;DHT22;24237;50.106;20.014;2024-01-15T10:38:21;3.40;95.00
38456;DHT22;24237;50.106;20.014;2024-01-15T10:40:56;3.30;5.50
38456;DHT22;24237;50.106;20.014;2024-01-15T10:43:22;3.50;1.00
38456;DHT22;24237;50.106;20.014;2024-01-15T10:45:49;3.50;1.00
38456;DHT22;24237;50.106;20.014;2024-01-15T10:48:19;3.60;1.00
38456;DHT22;24237;50.106;20.014;2024-01-15T10:50:46;3.80;99.90
38456;DHT22;24237;50.106;20.014;2024-01-15T10:53:13;4.00;99.90
38456;DHT22;24237;50.106;20.014;2024-01-15T10:55:42;4.00;99.90
38456;DHT22;24237;50.106;20.014;2024-01-15T10:58:08;3.70;99.90
38456;DHT22;24237;50.106;20.014;2024-01-15T11:00:35;3.60;99.90
38456;DHT22;24237;50.106;20.014;2024-01-15T11:03:03;3.60;99.90
38456;DHT22;24237;50.106;20.014;2024-01-15T11:05:36;3.70;99.90
38456;DHT22;24237;50.106;20.014;2024-01-15T11:08:05;3.80;99.90
38456;DHT22;24237;50.106;20.014;2024-01-15T11:13:07;3.70;99.90
38456;DHT22;24237;50.106;20.014;2024-01-15T11:18:22;3.90;99.90
38456;DHT22;24237;50.106;20.014;2024-01-15T11:23:45;4.10;99.90
38456;DHT22;24237;50.106;20.014;2024-01-15T11:26:33;4.40;99.90
38456;DHT22;24237;50.106;20.014;2024-01-15T11:29:00;4.40;96.40
38456;DHT22;24237;50.106;20.014;2024-01-15T11:34:07;4.80;18.50
38456;DHT22;24237;50.106;20.014;2024-01-15T11:41:57;4.50;1.00
38456;DHT22;24237;50.106;20.014;2024-01-15T11:44:23;4.40;1.00
38456;DHT22;24237;50.106;20.014;2024-01-15T11:46:58;4.50;1.00
38456;DHT22;24237;50.106;20.014;2024-01-15T11:52:20;4.20;1.00
38456;DHT22;24237;50.106;20.014;2024-01-15T11:54:55;4.10;1.00
38456;DHT22;24237;50.106;20.014;2024-01-15T11:57:46;3.90;1.00
38456;DHT22;24237;50.106;20.014;2024-01-15T12:00:13;3.90;1.00
38456;DHT22;24237;50.106;20.014;2024-01-15T12:02:43;4.00;1.00
38456;DHT22;24237;50.106;20.014;2024-01-15T12:05:10;3.60;2.80
38456;DHT22;24237;50.106;20.014;2024-01-15T12:07:41;3.60;19.20
38456;DHT22;24237;50.106;20.014;2024-01-15T12:10:27;3.60;19.10
38456;DHT22;24237;50.106;20.014;2024-01-15T12:13:03;3.80;23.90
38456;DHT22;24237;50.106;20.014;2024-01-15T12:15:31;4.00;1.00
38456;DHT22;24237;50.106;20.014;2024-01-15T12:17:58;3.80;1.00
38456;DHT22;24237;50.106;20.014;2024-01-15T12:20:27;3.60;1.00
38456;DHT22;24237;50.106;20.014;2024-01-15T12:22:53;3.50;1.00
38456;DHT22;24237;50.106;20.014;2024-01-15T12:25:21;3.60;1.00
38456;DHT22;24237;50.106;20.014;2024-01-15T12:27:47;3.60;1.00
38456;DHT22;24237;50.106;20.014;2024-01-15T12:30:13;3.70;1.00
38456;DHT22;24237;50.106;20.014;2024-01-15T12:32:41;3.70;1.00
38456;DHT22;24237;50.106;20.014;2024-01-15T12:35:08;3.60;1.00
38456;DHT22;24237;50.106;20.014;2024-01-15T12:37:36;3.50;1.00
38456;DHT22;24237;50.106;20.014;2024-01-15T12:40:03;3.50;1.00
38456;DHT22;24237;50.106;20.014;2024-01-15T12:42:50;3.60;1.00
38456;DHT22;24237;50.106;20.014;2024-01-15T12:45:15;3.70;1.00
38456;DHT22;24237;50.106;20.014;2024-01-15T12:47:41;3.60;1.00
38456;DHT22;24237;50.106;20.014;2024-01-15T12:50:12;3.70;1.00
38456;DHT22;24237;50.106;20.014;2024-01-15T12:52:39;3.60;1.00
38456;DHT22;24237;50.106;20.014;2024-01-15T12:55:07;3.50;1.00
38456;DHT22;24237;50.106;20.014;2024-01-15T12:57:34;3.70;1.00
38456;DHT22;24237;50.106;20.014;2024-01-15T13:00:00;3.80;1.00
38456;DHT22;24237;50.106;20.014;2024-01-15T13:02:26;4.20;1.00
38456;DHT22;24237;50.106;20.014;2024-01-15T13:04:51;4.30;1.00
38456;DHT22;24237;50.106;20.014;2024-01-15T13:07:17;4.00;1.00
38456;DHT22;24237;50.106;20.014;2024-01-15T13:09:43;3.80;1.00
38456;DHT22;24237;50.106;20.014;2024-01-15T13:12:09;4.00;1.00
38456;DHT22;24237;50.106;20.014;2024-01-15T13:14:34;3.80;1.00
38456;DHT22;24237;50.106;20.014;2024-01-15T13:17:01;3.90;1.00
38456;DHT22;24237;50.106;20.014;2024-01-15T13:19:28;4.00;1.00
38456;DHT22;24237;50.106;20.014;2024-01-15T13:21:54;4.00;1.00
38456;DHT22;24237;50.106;20.014;2024-01-15T13:24:21;3.80;1.00
38456;DHT22;24237;50.106;20.014;2024-01-15T13:26:47;3.80;1.00
38456;DHT22;24237;50.106;20.014;2024-01-15T13:29:13;3.70;1.00
38456;DHT22;24237;50.106;20.014;2024-01-15T13:31:40;3.80;1.00
38456;DHT22;24237;50.106;20.014;2024-01-15T13:34:05;3.80;1.00
38456;DHT22;24237;50.106;20.014;2024-01-15T13:36:32;3.70;1.00
38456;DHT22;24237;50.106;20.014;2024-01-15T13:38:58;3.50;1.00
38456;DHT22;24237;50.106;20.014;2024-01-15T13:41:24;3.30;1.00
38456;DHT22;24237;50.106;20.014;2024-01-15T13:43:53;3.40;1.00
38456;DHT22;24237;50.106;20.014;2024-01-15T13:46:20;3.50;1.00
38456;DHT22;24237;50.106;20.014;2024-01-15T13:48:47;3.60;1.00
38456;DHT22;24237;50.106;20.014;2024-01-15T13:51:13;3.60;1.00
38456;DHT22;24237;50.106;20.014;2024-01-15T13:53:39;3.60;1.00
38456;DHT22;24237;50.106;20.014;2024-01-15T13:56:06;3.40;1.00
38456;DHT22;24237;50.106;20.014;2024-01-15T13:58:32;3.50;1.00
38456;DHT22;24237;50.106;20.014;2024-01-15T14:00:59;3.60;1.00
38456;DHT22;24237;50.106;20.014;2024-01-15T14:03:25;3.60;1.00
38456;DHT22;24237;50.106;20.014;2024-01-15T14:05:53;3.50;1.00
38456;DHT22;24237;50.106;20.014;2024-01-15T14:08:19;3.30;1.00
38456;DHT22;24237;50.106;20.014;2024-01-15T14:10:45;3.60;1.00
38456;DHT22;24237;50.106;20.014;2024-01-15T14:13:11;3.60;1.00
38456;DHT22;24237;50.106;20.014;2024-01-15T14:15:39;3.50;1.00
38456;DHT22;24237;50.106;20.014;2024-01-15T14:18:05;3.50;1.00
38456;DHT22;24237;50.106;20.014;2024-01-15T14:20:31;3.60;1.00
38456;DHT22;24237;50.106;20.014;2024-01-15T14:22:57;3.80;1.00
38456;DHT22;24237;50.106;20.014;2024-01-15T14:25:22;3.50;1.00
38456;DHT22;24237;50.106;20.014;2024-01-15T14:27:49;3.50;1.00
38456;DHT22;24237;50.106;20.014;2024-01-15T14:30:16;3.60;1.00
38456;DHT22;24237;50.106;20.014;2024-01-15T14:32:42;3.70;1.00
38456;DHT22;24237;50.106;20.014;2024-01-15T14:35:08;3.50;1.00
38456;DHT22;24237;50.106;20.014;2024-01-15T14:37:38;3.50;1.00
38456;DHT22;24237;50.106;20.014;2024-01-15T14:40:08;3.70;1.00
38456;DHT22;24237;50.106;20.014;2024-01-15T14:42:34;3.50;1.00
38456;DHT22;24237;50.106;20.014;2024-01-15T14:45:00;3.40;1.00
38456;DHT22;24237;50.106;20.014;2024-01-15T14:47:28;3.50;1.00
38456;DHT22;24237;50.106;20.014;2024-01-15T14:49:55;3.40;1.00
38456;DHT22;24237;50.106;20.014;2024-01-15T14:52:22;3.50;1.00
38456;DHT22;24237;50.106;20.014;2024-01-15T14:54:51;3.40;1.00
38456;DHT22;24237;50.106;20.014;2024-01-15T14:57:16;3.40;1.00
38456;DHT22;24237;50.106;20.014;2024-01-15T14:59:42;3.40;1.00
38456;DHT22;24237;50.106;20.014;2024-01-15T15:02:08;3.40;1.00
38456;DHT22;24237;50.106;20.014;2024-01-15T15:04:34;3.50;1.00
38456;DHT22;24237;50.106;20.014;2024-01-15T15:06:59;3.40;1.00
38456;DHT22;24237;50.106;20.014;2024-01-15T15:09:25;3.20;1.00
38456;DHT22;24237;50.106;20.014;2024-01-15T15:11:51;3.30;1.00
38456;DHT22;24237;50.106;20.014;2024-01-15T15:14:18;3.20;1.00
38456;DHT22;24237;50.106;20.014;2024-01-15T15:16:43;3.20;1.00
38456;DHT22;24237;50.106;20.014;2024-01-15T15:19:09;3.30;1.00
38456;DHT22;24237;50.106;20.014;2024-01-15T15:21:34;3.30;1.00
38456;DHT22;24237;50.106;20.014;2024-01-15T15:24:00;3.30;1.00
38456;DHT22;24237;50.106;20.014;2024-01-15T15:26:26;3.40;1.00
38456;DHT22;24237;50.106;20.014;2024-01-15T15:28:51;3.20;1.00
38456;DHT22;24237;50.106;20.014;2024-01-15T15:31:17;3.20;1.00
38456;DHT22;24237;50.106;20.014;2024-01-15T15:33:43;3.20;1.00
38456;DHT22;24237;50.106;20.014;2024-01-15T15:36:09;3.30;1.00
38456;DHT22;24237;50.106;20.014;2024-01-15T15:38:35;3.30;1.00
38456;DHT22;24237;50.106;20.014;2024-01-15T15:41:01;3.30;1.00
38456;DHT22;24237;50.106;20.014;2024-01-15T15:43:27;3.30;1.00
38456;DHT22;24237;50.106;20.014;2024-01-15T15:45:53;3.20;1.00
38456;DHT22;24237;50.106;20.014;2024-01-15T15:48:19;3.30;1.00
38456;DHT22;24237;50.106;20.014;2024-01-15T15:50:44;3.30;1.00